This is the latest recevied weather packets stored in our database for station/object VK4RM-13. If no packets are shown the sender has not sent any weather packets the latest 10 day(s).
| Time | Temp. | Humidity | Pressure | Rain* | Wind** | Luminosity | Snow |
|---|---|---|---|---|---|---|---|
| 1777867001 | 27.78° C | 65% | 993.8 hPa | 0 mm | - | - | - |
| 1777866401 | 27.78° C | 66% | 993.9 hPa | 0 mm | - | - | - |
| 1777865801 | 27.78° C | 66% | 993.9 hPa | 0 mm | - | - | - |
| 1777865201 | 27.78° C | 63% | 994 hPa | 0 mm | - | - | - |
| 1777864601 | 27.22° C | 66% | 994.2 hPa | 0 mm | - | - | - |
| 1777864001 | 27.22° C | 66% | 994.4 hPa | 0 mm | - | - | - |
| 1777863401 | 27.78° C | 62% | 994.5 hPa | 0 mm | - | - | - |
| 1777862801 | 28.33° C | 62% | 994.7 hPa | 0 mm | - | - | - |
| 1777862201 | 27.78° C | 64% | 995 hPa | 0 mm | - | - | - |
| 1777861601 | 26.67° C | 70% | 995.1 hPa | 0 mm | - | - | - |
| 1777861001 | 26.67° C | 70% | 995.2 hPa | 0 mm | - | - | - |
| 1777860401 | 26.11° C | 69% | 995.4 hPa | 0 mm | - | - | - |
| 1777859202 | 26.11° C | 69% | 995.8 hPa | 0 mm | - | - | - |
| 1777858602 | 26.67° C | 69% | 996.1 hPa | 0 mm | - | - | - |
| 1777858002 | 26.11° C | 72% | 996.2 hPa | 0 mm | - | - | - |
| 1777857402 | 26.11° C | 70% | 996.3 hPa | 0 mm | - | - | - |
| 1777856802 | 26.11° C | 72% | 996.4 hPa | 0 mm | - | - | - |
| 1777856202 | 26.11° C | 70% | 996.5 hPa | 0 mm | - | - | - |
| 1777855602 | 26.11° C | 71% | 996.7 hPa | 0 mm | - | - | - |
| 1777855002 | 26.11° C | 72% | 996.8 hPa | 0 mm | - | - | - |
| 1777854402 | 26.11° C | 71% | 996.8 hPa | 0 mm | - | - | - |
| 1777853802 | 26.11° C | 72% | 996.8 hPa | 0 mm | - | - | - |
| 1777853202 | 25.56° C | 75% | 996.9 hPa | 0 mm | - | - | - |
| 1777852602 | 25° C | 76% | 996.9 hPa | 0 mm | - | - | - |
| 1777852002 | 24.44° C | 77% | 997 hPa | 0 mm | - | - | - |
* Rain latest hour (hover to see other rain measurements)
** Current wind speed in m/s (hover to see current wind gust speed)